createdAt,value
2018-04-16T00:00:18.702Z,9.1
2018-04-16T00:02:19.339Z,10.3
2018-04-16T00:04:19.155Z,9.4
2018-04-16T00:06:19.293Z,9
2018-04-16T00:08:19.080Z,9.1
2018-04-16T00:10:19.339Z,8.6
2018-04-16T00:12:19.475Z,10.4
2018-04-16T00:14:19.256Z,10.1
2018-04-16T00:16:19.377Z,8.6
2018-04-16T00:18:19.280Z,10.1
2018-04-16T00:20:19.091Z,9.5
2018-04-16T00:22:18.903Z,9.4
2018-04-16T00:24:18.693Z,8.6
2018-04-16T00:26:19.290Z,9.4
2018-04-16T00:28:19.071Z,10.7
2018-04-16T00:30:18.878Z,9.1
2018-04-16T00:32:19.401Z,9.3
2018-04-16T00:34:19.181Z,9.8
2018-04-16T00:36:19.330Z,8.8
2018-04-16T00:38:19.158Z,9.7
2018-04-16T00:40:19.419Z,10.1
2018-04-16T00:42:19.218Z,10.7
2018-04-16T00:44:19.012Z,9.7
2018-04-16T00:46:18.890Z,9.1
2018-04-16T00:48:18.666Z,8.4
2018-04-16T00:50:19.465Z,10.9
2018-04-16T00:52:19.289Z,9.6
2018-04-16T00:54:19.098Z,10.1
2018-04-16T00:56:18.743Z,9.6
2018-04-16T00:58:18.533Z,8.4
2018-04-16T01:00:19.410Z,10
2018-04-16T01:02:19.240Z,9.1
2018-04-16T01:04:19.060Z,9.7
2018-04-16T01:06:19.182Z,11
2018-04-16T01:08:18.973Z,9.9
2018-04-16T01:10:19.244Z,9.4
2018-04-16T01:12:19.037Z,9.6
2018-04-16T01:14:18.828Z,10.3
2018-04-16T01:16:18.776Z,9.8
2018-04-16T01:18:18.716Z,9.2
2018-04-16T01:20:18.626Z,10
2018-04-16T01:22:18.773Z,9.8
2018-04-16T01:24:18.646Z,10.2
2018-04-16T01:26:19.407Z,10.1
2018-04-16T01:28:19.294Z,8.1
2018-04-16T01:30:19.205Z,8.9
2018-04-16T01:32:19.374Z,9.5
2018-04-16T01:34:19.274Z,10.4
2018-04-16T01:36:18.718Z,8.8
2018-04-16T01:38:18.595Z,10.1
2018-04-16T01:40:18.974Z,10
2018-04-16T01:42:18.849Z,9.8
2018-04-16T01:44:18.767Z,9.8
2018-04-16T01:46:19.308Z,9.8
2018-04-16T01:48:19.170Z,9.5
2018-04-16T01:50:19.115Z,9.6
2018-04-16T01:52:19.009Z,8.5
2018-04-16T01:54:18.893Z,9.5
2018-04-16T01:56:19.225Z,9.1
2018-04-16T01:58:19.099Z,9.2
2018-04-16T02:00:18.986Z,10.4
2018-04-16T02:02:18.861Z,9.5
2018-04-16T02:04:18.735Z,9.2
2018-04-16T02:06:19.543Z,9.3
2018-04-16T02:08:19.449Z,9.7
2018-04-16T02:10:18.842Z,8.6
2018-04-16T02:12:18.983Z,9.3
2018-04-16T02:14:18.874Z,9.7
2018-04-16T02:16:18.610Z,8.7
2018-04-16T02:18:18.579Z,9.1
2018-04-16T02:20:19.483Z,8.9
2018-04-16T02:22:19.374Z,8.8
2018-04-16T02:24:19.276Z,9
2018-04-16T02:26:19.061Z,9.7
2018-04-16T02:28:18.969Z,9.4
2018-04-16T02:30:18.946Z,9.3
2018-04-16T02:32:18.833Z,9.3
2018-04-16T02:34:18.733Z,10.5
2018-04-16T02:36:19.202Z,9.9
2018-04-16T02:38:19.120Z,11.1
2018-04-16T02:40:19.501Z,10.4
2018-04-16T02:42:19.376Z,10.6
2018-04-16T02:44:19.267Z,8.9
2018-04-16T02:46:19.243Z,10.3
2018-04-16T02:48:19.144Z,8.9
2018-04-16T02:50:19.033Z,9.5
2018-04-16T02:52:18.961Z,10.6
2018-04-16T02:54:18.855Z,8.8
2018-04-16T02:56:19.298Z,9.3
2018-04-16T02:58:19.189Z,9.4
2018-04-16T03:00:19.105Z,8.7
2018-04-16T03:02:19.018Z,9.9
2018-04-16T03:04:18.903Z,9.3
2018-04-16T03:06:19.424Z,10.5
2018-04-16T03:08:19.319Z,11.5
2018-04-16T03:10:18.714Z,9.7
2018-04-16T03:12:18.604Z,10.2
2018-04-16T03:14:19.493Z,11.4
2018-04-16T03:16:19.255Z,10.2
2018-04-16T03:18:19.228Z,10.1
2018-04-16T03:20:19.127Z,11.2
2018-04-16T03:22:18.782Z,10.4
2018-04-16T03:24:18.701Z,11.2
2018-04-16T03:26:18.596Z,11
2018-04-16T03:28:19.478Z,10.4
2018-04-16T03:30:19.458Z,10.1
2018-04-16T03:32:19.357Z,9.3
2018-04-16T03:34:19.215Z,10.8
2018-04-16T03:36:18.981Z,10.7
2018-04-16T03:38:18.853Z,11.7
2018-04-16T03:40:19.262Z,10.1
2018-04-16T03:42:19.192Z,11.1
2018-04-16T03:44:19.086Z,10.1
2018-04-16T03:46:19.425Z,10.6
2018-04-16T03:48:19.305Z,9.5
2018-04-16T03:50:19.241Z,11.7
2018-04-16T03:52:19.112Z,10.8
2018-04-16T03:54:19.009Z,11.1
2018-04-16T03:56:19.463Z,12.1
2018-04-16T03:58:19.353Z,12.5
2018-04-16T04:00:19.211Z,11
2018-04-16T04:02:19.110Z,11.4
2018-04-16T04:04:18.980Z,12
2018-04-16T04:06:19.512Z,10.9
2018-04-16T04:08:19.426Z,12
2018-04-16T04:10:18.854Z,11.8
2018-04-16T04:12:18.764Z,10.6
2018-04-16T04:14:18.714Z,10.8
2018-04-16T04:16:19.053Z,10.6
2018-04-16T04:18:19.045Z,11
2018-04-16T04:20:19.039Z,11.3
2018-04-16T04:22:18.914Z,10.9
2018-04-16T04:24:18.800Z,11.4
2018-04-16T04:26:18.747Z,11.5
2018-04-16T04:28:18.643Z,11.1
2018-04-16T04:30:19.576Z,11.4
2018-04-16T04:32:19.476Z,12
2018-04-16T04:34:19.362Z,12.3
2018-04-16T04:36:18.676Z,12.5
2018-04-16T04:38:19.529Z,11.7
2018-04-16T04:40:18.884Z,11.6
2018-04-16T04:42:18.784Z,10.5
2018-04-16T04:44:18.685Z,11.3
2018-04-16T04:46:18.643Z,11.7
2018-04-16T04:48:19.534Z,11.6
2018-04-16T04:50:19.513Z,13.3
2018-04-16T04:52:18.683Z,11.1
2018-04-16T04:54:18.580Z,12
2018-04-16T04:56:19.123Z,11.1
2018-04-16T04:58:19.019Z,12.7
2018-04-16T05:00:18.916Z,11.3
2018-04-16T05:02:18.835Z,12.2
2018-04-16T05:04:18.717Z,11.3
2018-04-16T05:06:19.463Z,12.5
2018-04-16T05:08:19.338Z,12.8
2018-04-16T05:10:18.784Z,12
2018-04-16T05:12:18.658Z,13
2018-04-16T05:14:19.569Z,13.2
2018-04-16T05:16:19.313Z,11.8
2018-04-16T05:18:19.298Z,12.6
2018-04-16T05:20:19.188Z,13.6
2018-04-16T05:22:19.063Z,12.1
2018-04-16T05:24:18.945Z,12.6
2018-04-16T05:26:18.958Z,13.1
2018-04-16T05:28:18.859Z,11.7
2018-04-16T05:30:18.769Z,12.4
2018-04-16T05:32:18.645Z,13
2018-04-16T05:34:19.539Z,14
2018-04-16T05:36:19.072Z,12.6
2018-04-16T05:38:18.944Z,12.4
2018-04-16T05:40:19.447Z,13
2018-04-16T05:42:19.332Z,13.1
2018-04-16T05:44:19.213Z,13.3
2018-04-16T05:46:18.726Z,12.1
2018-04-16T05:48:18.609Z,13.5
2018-04-16T05:50:19.485Z,12
2018-04-16T05:52:19.385Z,11.9
2018-04-16T05:54:19.258Z,12.6
2018-04-16T05:56:19.311Z,12.4
2018-04-16T05:58:19.191Z,13.6
2018-04-16T06:00:19.120Z,13
2018-04-16T06:02:19.083Z,12.2
2018-04-16T06:04:18.983Z,11.3
2018-04-16T06:06:18.825Z,12.3
2018-04-16T06:08:18.704Z,13.4
2018-04-16T06:10:19.090Z,12.2
2018-04-16T06:12:18.981Z,12.5
2018-04-16T06:14:18.851Z,11.8
2018-04-16T06:16:18.800Z,12.1
2018-04-16T06:18:18.778Z,12.9
2018-04-16T06:20:18.681Z,13
2018-04-16T06:22:18.552Z,11.6
2018-04-16T06:24:19.445Z,13
2018-04-16T06:26:19.272Z,12.5
2018-04-16T06:28:19.144Z,12.2
2018-04-16T06:30:19.013Z,11.4
2018-04-16T06:32:18.893Z,12.3
2018-04-16T06:34:18.790Z,13.6
2018-04-16T06:36:19.139Z,12.5
2018-04-16T06:38:19.059Z,12.7
2018-04-16T06:40:19.446Z,11.2
2018-04-16T06:42:19.399Z,12.3
2018-04-16T06:44:19.360Z,13.7
2018-04-16T06:46:19.226Z,12.5
2018-04-16T06:48:19.129Z,13
2018-04-16T06:50:19.067Z,12.8
2018-04-16T06:52:18.966Z,12
2018-04-16T06:54:18.845Z,12.8
2018-04-16T06:56:18.848Z,13.5
2018-04-16T06:58:18.750Z,12.1
2018-04-16T07:00:18.742Z,12.3
2018-04-16T07:02:18.632Z,10.7
2018-04-16T07:04:19.523Z,12.5
2018-04-16T07:06:18.829Z,12.7
2018-04-16T07:08:18.749Z,11.5
2018-04-16T07:10:19.195Z,11.5
2018-04-16T07:12:19.092Z,13.1
2018-04-16T07:14:18.975Z,11.7
2018-04-16T07:16:19.054Z,11.7
2018-04-16T07:18:19.037Z,11.6
2018-04-16T07:20:19.015Z,11.2
2018-04-16T07:22:18.912Z,13.4
2018-04-16T07:24:18.825Z,12.9
2018-04-16T07:26:19.024Z,12.6
2018-04-16T07:28:18.902Z,13.9
2018-04-16T07:30:18.806Z,12.3
2018-04-16T07:32:18.683Z,11.6
2018-04-16T07:34:18.541Z,12
2018-04-16T07:36:18.853Z,12.6
2018-04-16T07:38:18.763Z,11.7
2018-04-16T07:40:19.183Z,11.7
2018-04-16T07:42:19.115Z,11.6
2018-04-16T07:44:18.993Z,13.2
2018-04-16T07:46:18.651Z,11.4
2018-04-16T07:48:19.535Z,11.8
2018-04-16T07:50:19.437Z,12.3
2018-04-16T07:52:19.354Z,12.5
2018-04-16T07:54:19.258Z,12.3
2018-04-16T07:56:19.181Z,9.8
2018-04-16T07:58:19.083Z,12
2018-04-16T08:00:18.974Z,12.1
2018-04-16T08:02:18.924Z,11.9
2018-04-16T08:04:18.808Z,13.2
2018-04-16T08:06:19.153Z,11.9
2018-04-16T08:08:19.027Z,11.8
2018-04-16T08:10:19.425Z,13
2018-04-16T08:12:19.323Z,11.7
2018-04-16T08:14:19.231Z,11.7
2018-04-16T08:16:19.267Z,11.1
2018-04-16T08:18:19.246Z,12.4
2018-04-16T08:20:19.166Z,11.4
2018-04-16T08:22:19.083Z,11.9
2018-04-16T08:24:19.073Z,11.6
2018-04-16T08:26:18.894Z,12.4
2018-04-16T08:28:18.781Z,12.4
2018-04-16T08:30:18.901Z,13.5
2018-04-16T08:32:18.785Z,13.4
2018-04-16T08:34:18.693Z,12.8
2018-04-16T08:36:19.007Z,12.5
2018-04-16T08:38:18.915Z,12.6
2018-04-16T08:40:19.277Z,12
2018-04-16T08:42:19.203Z,12.6
2018-04-16T08:44:19.096Z,11.3
2018-04-16T08:46:18.722Z,13.8
2018-04-16T08:48:18.631Z,13.5
2018-04-16T08:50:19.522Z,12.8
2018-04-16T08:52:19.423Z,12.2
2018-04-16T08:54:19.326Z,13.2
2018-04-16T08:56:18.905Z,12.7
2018-04-16T08:58:18.831Z,13.3
2018-04-16T09:00:18.741Z,12.8
2018-04-16T09:02:19.357Z,13.3
2018-04-16T09:04:19.261Z,13.2
2018-04-16T09:06:19.117Z,15.4
2018-04-16T09:08:19.007Z,15.1
2018-04-16T09:10:19.360Z,13.5
2018-04-16T09:12:19.248Z,14.6
2018-04-16T09:14:19.150Z,14.8
2018-04-16T09:16:18.650Z,14.3
2018-04-16T09:18:18.654Z,15
2018-04-16T09:20:18.546Z,15.4
2018-04-16T09:22:19.420Z,14.2
2018-04-16T09:24:19.318Z,13.7
2018-04-16T09:26:18.838Z,14.7
2018-04-16T09:28:18.719Z,15.5
2018-04-16T09:30:18.621Z,14.3
2018-04-16T09:32:19.232Z,15.4
2018-04-16T09:34:19.130Z,12.8
2018-04-16T09:36:18.985Z,12.7
2018-04-16T09:38:18.878Z,14.1
2018-04-16T09:40:19.285Z,13.3
2018-04-16T09:42:18.890Z,14.7
2018-04-16T09:44:18.777Z,13.3
2018-04-16T09:46:18.758Z,14.3
2018-04-16T09:48:18.634Z,12.6
2018-04-16T09:50:19.646Z,13.2
2018-04-16T09:52:18.835Z,14
2018-04-16T09:54:18.718Z,12.7
2018-04-16T09:56:19.495Z,12.4
2018-04-16T09:58:19.409Z,13.5
2018-04-16T10:00:19.358Z,13.2
2018-04-16T10:02:19.348Z,13.2
2018-04-16T10:04:19.222Z,11.9
2018-04-16T10:06:19.100Z,11.6
2018-04-16T10:08:18.990Z,12.4
2018-04-16T10:10:19.374Z,12.7
2018-04-16T10:12:19.254Z,12.2
2018-04-16T10:14:19.148Z,13.4
2018-04-16T10:16:19.426Z,11
2018-04-16T10:18:19.404Z,12.7
2018-04-16T10:20:19.306Z,12.2
2018-04-16T10:22:19.526Z,13.4
2018-04-16T10:24:19.460Z,12.5
2018-04-16T10:26:18.875Z,12.6
2018-04-16T10:28:18.787Z,11.8
2018-04-16T10:30:18.747Z,13.5
2018-04-16T10:32:18.645Z,11.6
2018-04-16T10:34:19.533Z,13
2018-04-16T10:36:18.886Z,12.5
2018-04-16T10:38:18.792Z,12.1
2018-04-16T10:40:19.171Z,12.6
2018-04-16T10:42:19.061Z,10.8
2018-04-16T10:44:18.975Z,11.2
2018-04-16T10:46:18.858Z,12.3
2018-04-16T10:48:18.781Z,11.6
2018-04-16T10:50:18.725Z,13
2018-04-16T10:52:18.632Z,13.7
2018-04-16T10:54:19.559Z,13.6
2018-04-16T10:56:19.227Z,13.3
2018-04-16T10:58:19.110Z,13.3
2018-04-16T11:00:19.105Z,11
2018-04-16T11:02:18.788Z,13.9
2018-04-16T11:04:18.689Z,12.2
2018-04-16T11:06:18.738Z,13.2
2018-04-16T11:08:18.634Z,12.3
2018-04-16T11:10:19.018Z,12.8
2018-04-16T11:12:18.916Z,12.4
2018-04-16T11:14:18.817Z,12
2018-04-16T11:16:18.648Z,12.3
2018-04-16T11:18:18.620Z,11.5
2018-04-16T11:20:19.586Z,12.5
2018-04-16T11:22:19.503Z,11.4
2018-04-16T11:24:19.401Z,12.9
2018-04-16T11:26:18.691Z,13.2
2018-04-16T11:28:18.591Z,12.7
2018-04-16T11:30:19.582Z,13.1
2018-04-16T11:32:19.500Z,13.4
2018-04-16T11:34:19.415Z,13.8
2018-04-16T11:36:18.766Z,13.1
2018-04-16T11:38:18.671Z,12.7
2018-04-16T11:40:19.053Z,12.9
2018-04-16T11:42:18.946Z,13.7
2018-04-16T11:44:18.837Z,14.5
2018-04-16T11:46:19.181Z,13.3
2018-04-16T11:48:19.069Z,12.9
2018-04-16T11:50:18.971Z,13.8
2018-04-16T11:52:18.884Z,11.9
2018-04-16T11:54:18.803Z,12.6
2018-04-16T11:56:19.239Z,13.9
2018-04-16T11:58:19.118Z,12.5
2018-04-16T12:00:19.042Z,12.6
2018-04-16T12:02:18.853Z,12.9
2018-04-16T12:04:18.822Z,12
2018-04-16T12:06:18.918Z,13.2
2018-04-16T12:08:18.847Z,13.8
2018-04-16T12:10:19.270Z,14.9
2018-04-16T12:12:19.189Z,13.2
2018-04-16T12:14:19.084Z,14
2018-04-16T12:16:19.512Z,14.1
2018-04-16T12:18:19.466Z,12.8
2018-04-16T12:20:19.437Z,14.3
2018-04-16T12:22:19.380Z,14.4
2018-04-16T12:24:19.369Z,14.9
2018-04-16T12:26:19.174Z,12.4
2018-04-16T12:28:19.078Z,15.8
2018-04-16T12:30:18.967Z,14.6
2018-04-16T12:32:18.878Z,14
2018-04-16T12:34:18.773Z,14.5
2018-04-16T12:36:18.715Z,15.1
2018-04-16T12:38:18.624Z,13.5
2018-04-16T12:40:19.018Z,14.6
2018-04-16T12:42:18.938Z,15.4
2018-04-16T12:44:18.836Z,14
2018-04-16T12:46:19.318Z,15.4
2018-04-16T12:48:19.220Z,15.8
2018-04-16T12:50:19.133Z,14.6
2018-04-16T12:52:19.026Z,14.5
2018-04-16T12:54:18.913Z,13.5
2018-04-16T12:56:18.843Z,14.7
2018-04-16T12:58:18.736Z,14.2
2018-04-16T13:00:18.646Z,15.8
2018-04-16T13:02:19.554Z,15.6
2018-04-16T13:04:19.449Z,14.2
2018-04-16T13:06:18.762Z,16.3
2018-04-16T13:08:18.638Z,16.6
2018-04-16T13:10:19.050Z,16
2018-04-16T13:12:18.955Z,16.6
2018-04-16T13:14:18.873Z,16.4
2018-04-16T13:16:19.202Z,16.6
2018-04-16T13:18:19.157Z,17
2018-04-16T13:20:19.104Z,17.8
2018-04-16T13:22:19.305Z,16.2
2018-04-16T13:24:19.210Z,16.3
2018-04-16T13:26:19.274Z,17.9
2018-04-16T13:28:19.185Z,15.9
2018-04-16T13:30:19.115Z,15.3
2018-04-16T13:32:18.850Z,16.3
2018-04-16T13:34:18.755Z,19.1
2018-04-16T13:36:19.117Z,18.3
2018-04-16T13:38:19.027Z,17.5
2018-04-16T13:40:19.412Z,16.8
2018-04-16T13:42:19.308Z,17
2018-04-16T13:44:19.203Z,17.8
2018-04-16T13:46:18.638Z,16.4
2018-04-16T13:48:19.526Z,16.3
2018-04-16T13:50:19.405Z,17.3
2018-04-16T13:52:19.293Z,17.5
2018-04-16T13:54:19.166Z,16.9
2018-04-16T13:56:18.616Z,16.8
2018-04-16T13:58:19.498Z,17.7
2018-04-16T14:00:19.389Z,15.4
2018-04-16T14:02:19.295Z,17.5
2018-04-16T14:04:19.189Z,16.8
2018-04-16T14:06:18.583Z,17.5
2018-04-16T14:08:19.506Z,18.5
2018-04-16T14:10:18.890Z,17.6
2018-04-16T14:12:18.800Z,16.1
2018-04-16T14:14:18.682Z,15.6
2018-04-16T14:16:19.065Z,16.2
2018-04-16T14:18:19.046Z,15.5
2018-04-16T14:20:19.155Z,15.9
2018-04-16T14:22:19.088Z,17.2
2018-04-16T14:24:19.059Z,16.8
2018-04-16T14:26:19.101Z,16.7
2018-04-16T14:28:19.032Z,16.1
2018-04-16T14:30:18.961Z,17
2018-04-16T14:32:18.879Z,16.1
2018-04-16T14:34:18.793Z,16
2018-04-16T14:36:18.653Z,17.4
2018-04-16T14:38:18.562Z,15.8
2018-04-16T14:40:18.917Z,16.9
2018-04-16T14:42:18.792Z,17.5
2018-04-16T14:44:18.690Z,17.2
2018-04-16T14:46:19.502Z,17.8
2018-04-16T14:48:19.413Z,16.3
2018-04-16T14:50:19.318Z,16.4
2018-04-16T14:52:19.223Z,16.1
2018-04-16T14:54:19.129Z,16
2018-04-16T14:56:19.475Z,14.8
2018-04-16T14:58:19.387Z,16.2
2018-04-16T15:00:19.294Z,15.5
2018-04-16T15:02:19.234Z,15.6
2018-04-16T15:04:19.136Z,16.9
2018-04-16T15:06:19.486Z,15.5
2018-04-16T15:08:19.393Z,17.4
2018-04-16T15:10:18.802Z,15.4
2018-04-16T15:12:18.678Z,16
2018-04-16T15:14:18.576Z,16.8
2018-04-16T15:16:18.938Z,15.2
2018-04-16T15:18:18.908Z,15.5
2018-04-16T15:20:18.843Z,16.2
2018-04-16T15:22:18.958Z,16.7
2018-04-16T15:24:18.866Z,16.6
2018-04-16T15:26:19.158Z,15.9
2018-04-16T15:28:19.045Z,15.5
2018-04-16T15:30:18.948Z,16.7
2018-04-16T15:32:18.860Z,17.2
2018-04-16T15:34:18.791Z,16.2
2018-04-16T15:36:19.300Z,15.6
2018-04-16T15:38:19.265Z,16.5
2018-04-16T15:40:18.701Z,16.1
2018-04-16T15:42:19.389Z,15.5
2018-04-16T15:44:19.289Z,17
2018-04-16T15:46:18.776Z,14.9
2018-04-16T15:48:18.672Z,15.8
2018-04-16T15:50:18.591Z,16.5
2018-04-16T15:52:18.939Z,17.1
2018-04-16T15:54:18.871Z,15.5
2018-04-16T15:56:19.027Z,15.8
2018-04-16T15:58:18.933Z,16.5
2018-04-16T16:00:18.831Z,17.8
2018-04-16T16:02:18.717Z,17.4
2018-04-16T16:04:18.620Z,16.3
2018-04-16T16:06:19.237Z,16.6
2018-04-16T16:08:19.135Z,15.9
2018-04-16T16:10:19.506Z,17
2018-04-16T16:12:19.481Z,16.4
2018-04-16T16:14:19.393Z,16.3
2018-04-16T16:16:18.913Z,16.7
2018-04-16T16:18:18.851Z,16.2
2018-04-16T16:20:18.775Z,15.9
2018-04-16T16:22:18.686Z,15.4
2018-04-16T16:24:18.595Z,15.7
2018-04-16T16:26:18.933Z,16
2018-04-16T16:28:18.854Z,16.8
2018-04-16T16:30:18.760Z,16.9
2018-04-16T16:32:18.637Z,16
2018-04-16T16:34:19.515Z,16.2
2018-04-16T16:36:19.353Z,15.1
2018-04-16T16:38:19.267Z,15.3
2018-04-16T16:40:18.666Z,15.5
2018-04-16T16:42:18.563Z,16.4
2018-04-16T16:44:19.468Z,15.8
2018-04-16T16:46:19.047Z,15.9
2018-04-16T16:48:18.967Z,15.6
2018-04-16T16:50:18.879Z,15.6
2018-04-16T16:52:18.625Z,14.4
2018-04-16T16:54:19.558Z,15.9
2018-04-16T16:56:18.646Z,16.2
2018-04-16T16:58:19.587Z,15.2
2018-04-16T17:00:19.487Z,16.6
2018-04-16T17:02:19.375Z,16.5
2018-04-16T17:04:19.331Z,16.9
2018-04-16T17:06:19.311Z,15.4
2018-04-16T17:08:19.230Z,15.1
2018-04-16T17:10:18.596Z,15.4
2018-04-16T17:12:19.509Z,15.4
2018-04-16T17:14:19.427Z,15.4
2018-04-16T17:16:19.007Z,15
2018-04-16T17:18:19.000Z,15.2
2018-04-16T17:20:18.992Z,16.3
2018-04-16T17:22:18.923Z,15.2
2018-04-16T17:24:18.822Z,15.7
2018-04-16T17:26:18.600Z,14.2
2018-04-16T17:28:19.496Z,13.5
2018-04-16T17:30:19.446Z,14.8
2018-04-16T17:32:19.357Z,16.5
2018-04-16T17:34:19.258Z,16.8
2018-04-16T17:36:19.227Z,16.2
2018-04-16T17:38:19.134Z,15.7
2018-04-16T17:40:19.588Z,15.7
2018-04-16T17:42:19.471Z,14.1
2018-04-16T17:44:19.535Z,14.2
2018-04-16T17:46:18.583Z,15
2018-04-16T17:48:19.496Z,16.1
2018-04-16T17:50:19.563Z,14.4
2018-04-16T17:52:19.438Z,15.7
2018-04-16T17:54:19.360Z,16.4
2018-04-16T17:56:18.862Z,14.8
2018-04-16T17:58:18.756Z,14.4
2018-04-16T18:00:18.683Z,15.8
2018-04-16T18:02:18.610Z,16.1
2018-04-16T18:04:19.523Z,14.2
2018-04-16T18:06:18.830Z,15.2
2018-04-16T18:08:18.719Z,16.6
2018-04-16T18:10:19.323Z,15.1
2018-04-16T18:12:19.242Z,14.4
2018-04-16T18:14:19.131Z,14.2
2018-04-16T18:16:18.999Z,16.7
2018-04-16T18:18:18.990Z,15.9
2018-04-16T18:20:18.927Z,14.9
2018-04-16T18:22:18.793Z,15.6
2018-04-16T18:24:18.675Z,16.3
2018-04-16T18:26:19.022Z,14.9
2018-04-16T18:28:18.927Z,14.9
2018-04-16T18:30:18.981Z,15.1
2018-04-16T18:32:18.892Z,17.4
2018-04-16T18:34:18.772Z,16.6
2018-04-16T18:36:19.588Z,16
2018-04-16T18:38:19.476Z,16.1
2018-04-16T18:40:18.856Z,16.9
2018-04-16T18:42:18.751Z,16.5
2018-04-16T18:44:18.636Z,15.2
2018-04-16T18:46:18.579Z,14.9
2018-04-16T18:48:19.490Z,15
2018-04-16T18:50:19.423Z,15.7
2018-04-16T18:52:19.343Z,15.9
2018-04-16T18:54:19.268Z,15.5
2018-04-16T18:56:18.575Z,16.6
2018-04-16T18:58:19.462Z,15.9
2018-04-16T19:00:19.402Z,15.9
2018-04-16T19:02:19.301Z,14.3
2018-04-16T19:04:19.207Z,15.3
2018-04-16T19:06:18.847Z,15.3
2018-04-16T19:08:18.750Z,15.3
2018-04-16T19:10:19.209Z,14.3
2018-04-16T19:12:19.107Z,13.2
2018-04-16T19:14:18.988Z,14
2018-04-16T19:16:19.590Z,15.1
2018-04-16T19:18:18.583Z,13.3
2018-04-16T19:20:19.509Z,15
2018-04-16T19:22:19.416Z,13.4
2018-04-16T19:24:19.298Z,12.2
2018-04-16T19:26:18.732Z,13.1
2018-04-16T19:28:18.644Z,13.5
2018-04-16T19:30:19.599Z,12.8
2018-04-16T19:32:19.504Z,12.9
2018-04-16T19:34:19.378Z,12.2
2018-04-16T19:36:18.812Z,12.1
2018-04-16T19:38:18.734Z,11
2018-04-16T19:40:19.096Z,12.2
2018-04-16T19:42:18.973Z,12.9
2018-04-16T19:44:18.894Z,11.8
2018-04-16T19:46:18.862Z,12.3
2018-04-16T19:48:18.763Z,12.6
2018-04-16T19:50:18.924Z,12.3
2018-04-16T19:52:18.835Z,12.4
2018-04-16T19:54:18.737Z,12.2
2018-04-16T19:56:19.128Z,12.6
2018-04-16T19:58:19.026Z,11.4
2018-04-16T20:00:18.928Z,10.9
2018-04-16T20:02:18.844Z,12.7
2018-04-16T20:04:18.762Z,11.8
2018-04-16T20:06:19.273Z,12.7
2018-04-16T20:08:19.150Z,12.5
2018-04-16T20:10:19.567Z,11.7
2018-04-16T20:12:19.500Z,11.9
2018-04-16T20:14:19.403Z,12.3
2018-04-16T20:16:19.258Z,12.5
2018-04-16T20:18:19.257Z,11.8
2018-04-16T20:20:19.173Z,11.9
2018-04-16T20:22:19.367Z,11.2
2018-04-16T20:24:19.305Z,11.1
2018-04-16T20:26:18.790Z,12.5
2018-04-16T20:28:18.710Z,12.7
2018-04-16T20:30:18.588Z,12.1
2018-04-16T20:32:19.375Z,11.4
2018-04-16T20:34:19.262Z,11.2
2018-04-16T20:36:19.104Z,11.5
2018-04-16T20:38:19.004Z,11.1
2018-04-16T20:40:19.344Z,11.6
2018-04-16T20:42:19.283Z,11.7
2018-04-16T20:44:19.162Z,11.5
2018-04-16T20:46:19.120Z,11.4
2018-04-16T20:48:19.032Z,11.4
2018-04-16T20:50:18.951Z,11.6
2018-04-16T20:52:18.856Z,12.3
2018-04-16T20:54:18.771Z,11.4
2018-04-16T20:56:19.101Z,12.6
2018-04-16T20:58:18.992Z,12.5
2018-04-16T21:00:18.904Z,10.7
2018-04-16T21:02:18.811Z,13.5
2018-04-16T21:04:18.681Z,13.6
2018-04-16T21:06:19.030Z,13
2018-04-16T21:08:18.953Z,12.8
2018-04-16T21:10:19.376Z,12.7
2018-04-16T21:12:19.283Z,12.3
2018-04-16T21:14:19.175Z,12.2
2018-04-16T21:16:19.142Z,13.2
2018-04-16T21:18:19.120Z,13.5
2018-04-16T21:20:19.140Z,12.7
2018-04-16T21:22:19.073Z,13.9
2018-04-16T21:24:18.963Z,13.4
2018-04-16T21:26:19.274Z,13.5
2018-04-16T21:28:19.190Z,14.6
2018-04-16T21:30:19.090Z,15.4
2018-04-16T21:32:19.010Z,15.3
2018-04-16T21:34:18.905Z,14.3
2018-04-16T21:36:18.737Z,15.4
2018-04-16T21:38:18.638Z,14.8
2018-04-16T21:40:19.002Z,14.6
2018-04-16T21:42:18.882Z,14.9
2018-04-16T21:44:18.770Z,15.7
2018-04-16T21:46:19.093Z,14.5
2018-04-16T21:48:19.025Z,15.9
2018-04-16T21:50:18.938Z,15.8
2018-04-16T21:52:18.834Z,14.6
2018-04-16T21:54:18.735Z,15.5
2018-04-16T21:56:18.886Z,16.8
2018-04-16T21:58:18.774Z,17.6
2018-04-16T22:00:18.661Z,15.9
2018-04-16T22:02:18.569Z,14.7
2018-04-16T22:04:19.471Z,16.5
2018-04-16T22:06:19.239Z,15.7
2018-04-16T22:08:19.142Z,17.1
2018-04-16T22:10:19.568Z,17.9
2018-04-16T22:12:19.465Z,18.6
2018-04-16T22:14:19.352Z,17.2
2018-04-16T22:16:18.842Z,19.2
2018-04-16T22:18:18.802Z,18.4
2018-04-16T22:20:18.676Z,18.8
2018-04-16T22:22:18.563Z,17.8
2018-04-16T22:24:19.455Z,19.5
2018-04-16T22:26:18.577Z,20
2018-04-16T22:28:19.475Z,19.1
2018-04-16T22:30:19.409Z,18.6
2018-04-16T22:32:19.272Z,19.1
2018-04-16T22:34:19.185Z,18.5
2018-04-16T22:36:18.851Z,19.1
2018-04-16T22:38:18.755Z,19.3
2018-04-16T22:40:19.202Z,19.5
2018-04-16T22:42:19.102Z,20.2
2018-04-16T22:44:18.970Z,17.6
2018-04-16T22:46:19.354Z,19.8
2018-04-16T22:48:19.247Z,18.8
2018-04-16T22:50:19.159Z,17.9
2018-04-16T22:52:19.032Z,20.1
2018-04-16T22:54:18.953Z,17.5
2018-04-16T22:56:19.535Z,19.7
2018-04-16T22:58:19.423Z,21.3
2018-04-16T23:00:19.335Z,20
2018-04-16T23:02:19.477Z,18.8
2018-04-16T23:04:19.364Z,19.9
2018-04-16T23:06:18.769Z,21.5
2018-04-16T23:08:18.666Z,20.1
2018-04-16T23:10:19.042Z,18.3
2018-04-16T23:12:18.956Z,19.5
2018-04-16T23:14:18.865Z,19.9
2018-04-16T23:16:19.377Z,18.4
2018-04-16T23:18:19.337Z,21
2018-04-16T23:20:19.231Z,20.2
2018-04-16T23:22:19.121Z,20.9
2018-04-16T23:24:19.030Z,19.4
2018-04-16T23:26:18.795Z,19.3
2018-04-16T23:28:18.695Z,19.4
2018-04-16T23:30:18.588Z,20.2
2018-04-16T23:32:19.460Z,20.2
2018-04-16T23:34:19.360Z,19.3
2018-04-16T23:36:18.710Z,20.8
2018-04-16T23:38:18.584Z,20.5
2018-04-16T23:40:19.003Z,21.5
2018-04-16T23:42:18.890Z,20.9
2018-04-16T23:44:18.779Z,19.8
2018-04-16T23:46:18.621Z,20.5
2018-04-16T23:48:19.522Z,20.3
2018-04-16T23:50:19.450Z,21.3
2018-04-16T23:52:19.407Z,21.4
2018-04-16T23:54:19.298Z,19.2
2018-04-16T23:56:18.668Z,22.4
2018-04-16T23:58:19.568Z,20
